Terminal Aerodrome Forecast
Issued by NWS Portland, ME

Home | Current Version | Previous Version | Text Only | Print | Product List | Glossary On
Versions: 1 2 3 4 5 6 7 8 9 10 11 12 13 14 15 16 17 18 19 20 21 22
000
FTUS41 KGYX 212320
TAFCON
TAF
KCON 212320Z 2200/2224 19006KT P6SM BKN180
     FM221300 00000KT 5SM -RA OVC030
     FM221500 00000KT 3SM -RA OVC012
     FM221700 VRB03KT P6SM OVC011
     FM222100 31007KT P6SM BKN035
     FM222200 31008KT P6SM SCT100=

USA.gov is the U.S. government's official web portal to all federal, state and local government web resources and services.